Stations météo

réclame
Mon MeteoGroup
Gladhammar, Suède (2559): Température de l'air & dewpoint: 19.02.2018 00:00:00 - 25.02.2018 00:00:00 (CET)Gladhammar, Suède (2559): Vitesse du vent & gusts: 19.02.2018 00:00:00 - 25.02.2018 00:00:00 (CET)Gladhammar, Suède (2559): Direction du vent: 19.02.2018 00:00:00 - 25.02.2018 00:00:00 (CET)Gladhammar, Suède (2559): visibility: 19.02.2018 00:00:00 - 25.02.2018 00:00:00 (CET)Gladhammar, Suède (2559): Quantités de précipitations: 19.02.2018 00:00:00 - 25.02.2018 00:00:00 (CET)
Date & Time tt [°C] td [°C] ff [km/h] ff [knt] fx [km/h] fx [knt] dd vv [km] rr [mm]
25.02.2018 00:00:00 -7,9 -10,1 11 6 18 10 NNW 6 0,0
24.02.2018 23:00:00 -8,1 -10,5 10 5 19 10 NNW 20 0,0
24.02.2018 22:00:00 -8,2 -11,0 9 5 16 9 NNW 50 0,0
24.02.2018 21:00:00 -8,1 -11,1 8 4 15 8 NNW 50 0,2
24.02.2018 20:00:00 -8,4 -11,5 5 3 11 6 N 50 0,0
24.02.2018 19:00:00 -8,1 -11,7 7 4 11 6 NNW 50 0,0
24.02.2018 18:00:00 -7,5 -11,0 6 4 12 6 NNW 50 0,0
24.02.2018 17:00:00 -6,3 -10,5 8 4 24 13 N 50 0,0
24.02.2018 16:00:00 -4,9 -9,9 10 5 24 13 N 50 0,0
24.02.2018 15:00:00 -4,3 -8,9 15 8 28 15 N 21 0,0
24.02.2018 14:00:00 -4,2 -8,9 13 7 27 15 N 27 0,0
24.02.2018 13:00:00 -4,4 -7,7 14 8 32 17 N 2,9 0,1
24.02.2018 12:00:00 -4,5 -7,3 13 7 27 15 N 8 0,1
24.02.2018 11:00:00 -5,4 -7,8 14 8 31 17 N 1,2 0,3
24.02.2018 10:00:00 -7,1 -9,0 11 6 26 14 N 1,1 0,1
24.02.2018 09:00:00 -8,1 -9,9 12 7 24 13 N 13 0,0
24.02.2018 08:00:00 -8,9 -10,4 11 6 24 13 NNW 18 0,0
24.02.2018 07:00:00 -8,1 -9,3 13 7 26 14 N 4,9 0,0
24.02.2018 06:00:00 -7,9 -9,3 13 7 24 13 N 15 0,0
24.02.2018 05:00:00 -7,8 -9,0 16 8 27 14 NNW 2,4 0,3
24.02.2018 04:00:00 -8,0 -9,3 14 8 25 14 N 4,6 0,2
24.02.2018 03:00:00 -7,3 -8,7 16 8 27 15 N 0,5 0,2
24.02.2018 02:00:00 -6,9 -8,8 11 6 27 14 N 50 0,0
24.02.2018 01:00:00 -6,7 -8,4 14 7 25 14 N 50 0,0
24.02.2018 00:00:00 -5,7 -6,8 14 7 24 13 N 1,2 0,1
23.02.2018 23:00:00 -5,8 -7,0 12 6 17 9 NNW 12 0,0
23.02.2018 22:00:00 -5,2 -6,6 10 6 20 11 N 23 0,0
23.02.2018 21:00:00 -5,1 -6,3 11 6 22 12 N 11 0,2
23.02.2018 20:00:00 -4,4 -5,9 11 6 22 12 N 41 0,1
23.02.2018 19:00:00 -3,7 -6,3 13 7 25 13 N 13 0,0
23.02.2018 18:00:00 -3,4 -6,2 10 5 22 12 N 50 0,0
23.02.2018 17:00:00 -2,9 -4,9 10 6 28 15 N 50 0,0
23.02.2018 16:00:00 -2,5 -4,5 11 6 24 13 N 10 0,0
23.02.2018 15:00:00 -2,0 -4,7 13 7 24 13 N 32 0,0
23.02.2018 14:00:00 -1,9 -4,2 13 7 24 13 N 34 0,0
23.02.2018 13:00:00 -1,8 -3,7 14 8 24 13 N 37 0,1
23.02.2018 12:00:00 -1,8 -3,1 8 5 16 9 NW 9 0,0
23.02.2018 11:00:00 -2,2 -3,6 9 5 16 9 NW 8 0,3
23.02.2018 10:00:00 -3,3 -4,4 6 3 14 7 WNW 2,1 0,1
23.02.2018 09:00:00 -4,0 -5,1 8 5 19 11 WNW 11 0,1
23.02.2018 08:00:00 -4,6 -5,6 7 4 14 7 WNW 6 0,0
23.02.2018 07:00:00 -5,0 -6,1 3 2 11 6 WNW 21 0,0
23.02.2018 06:00:00 -5,0 -6,1 5 3 14 7 W 2,5 0,0
23.02.2018 05:00:00 -5,1 -6,2 4 2 7 4 W 38 0,0
23.02.2018 04:00:00 -5,0 -6,1 3 2 9 5 W 39 0,0
23.02.2018 03:00:00 -5,1 -6,3 3 2 7 4 WSW 31 0,0
23.02.2018 02:00:00 -5,5 -6,6 4 2 8 5 SW 31 0,0
23.02.2018 01:00:00 -5,7 -6,6 4 2 8 4 WSW 24 0,0
23.02.2018 00:00:00 -6,0 -6,7 5 3 7 4 WSW 20 0,0
22.02.2018 23:00:00 -5,7 -6,6 3 2 6 4 W 24 0,0
22.02.2018 22:00:00 -5,7 -6,5 4 2 7 4 W 28 0,0
22.02.2018 21:00:00 -6,9 -7,7 0 0 4 2 N 20 0,0
22.02.2018 20:00:00 -7,5 -8,4 0 0 2 1 N 23 0,0
22.02.2018 19:00:00 -7,6 -8,4 0 0 6 3 N 12 0,0
22.02.2018 18:00:00 -5,5 -6,3 3 1 7 4 W 20 0,0
22.02.2018 17:00:00 -3,6 -5,6 6 3 13 7 SW 39 0,0
22.02.2018 16:00:00 -3,1 -5,3 8 4 14 7 SW 33 0,0
22.02.2018 15:00:00 -2,8 -5,6 0 0 5 3 N 30 0,0
22.02.2018 14:00:00 -2,8 -5,6 0 0 2 1 N 34 0,0
22.02.2018 13:00:00 -3,4 -6,0 0 0 6 4 N 36 0,0
22.02.2018 12:00:00 -4,3 -6,3 3 2 7 4 N 31 0,0
22.02.2018 11:00:00 -5,2 -6,7 3 1 5 3 NNW 26 0,0
22.02.2018 10:00:00 -6,3 -7,7 4 2 10 5 N 29 0,0
22.02.2018 09:00:00 -7,6 -8,5 0 0 3 2 N 25 0,0
22.02.2018 08:00:00 -9,5 -10,4 0 0 3 2 N 29 0,0
22.02.2018 07:00:00 -10,5 -11,5 0 0 4 2 N 24 0,0
22.02.2018 06:00:00 -11,3 -12,3 0 0 6 3 N 27 0,0
22.02.2018 05:00:00 -11,3 -12,5 0 0 5 3 N 30 0,0
22.02.2018 04:00:00 -11,0 -12,2 3 2 10 6 N 33 0,0
22.02.2018 03:00:00 -10,1 -11,0 2 1 5 3 WNW 28 0,0
22.02.2018 02:00:00 -11,3 -12,5 3 2 6 3 WNW 42 0,0
22.02.2018 01:00:00 -11,3 -12,5 0 0 5 3 N 24 0,0
22.02.2018 00:00:00 -10,1 -11,1 0 0 8 4 N 24 0,0
21.02.2018 23:00:00 -9,6 -10,8 0 0 5 3 N 13 0,0
21.02.2018 22:00:00 -9,0 -9,9 0 0 4 2 N 11 0,0
21.02.2018 21:00:00 -9,1 -10,2 2 1 6 3 N 15 0,0
21.02.2018 20:00:00 -7,1 -7,9 3 2 11 6 NNW 16 0,0
21.02.2018 19:00:00 -5,3 -6,4 7 4 11 6 NNW 3,6 0,1
21.02.2018 18:00:00 -4,7 -5,8 6 3 11 6 NNW 6 0,0
21.02.2018 17:00:00 -4,2 -5,4 7 4 12 7 NNW 8 0,0
21.02.2018 16:00:00 -3,9 -5,4 7 4 13 7 N 25 0,0
21.02.2018 15:00:00 -3,4 -5,0 6 3 10 5 N 43 0,0
21.02.2018 14:00:00 -2,8 -4,5 5 3 10 5 NNW 15 0,0
21.02.2018 13:00:00 -3,0 -4,9 3 1 7 4 NNW 20 0,0
21.02.2018 12:00:00 -3,6 -4,9 5 3 13 7 N 3,4 0,1
21.02.2018 11:00:00 -3,8 -5,1 7 4 11 6 NNW 2,3 0,0
21.02.2018 10:00:00 -4,3 -5,7 3 2 7 4 NNW 13 0,0
21.02.2018 09:00:00 -5,5 -6,3 2 1 4 2 W 13 0,0
21.02.2018 08:00:00 -6,8 -7,6 0 0 3 1 N 12 0,0
21.02.2018 07:00:00 -6,7 -7,5 0 0 4 2 N 15 0,0
21.02.2018 06:00:00 -6,3 -7,2 2 1 6 3 WSW 15 0,0
21.02.2018 05:00:00 -7,1 -8,0 0 0 4 2 N 16 0,0
21.02.2018 04:00:00 -6,9 -7,7 0 0 4 2 N 17 0,0
21.02.2018 03:00:00 -6,8 -7,6 2 1 6 4 WNW 14 0,0
21.02.2018 02:00:00 -5,1 -5,9 3 2 8 5 WNW 15 0,0
21.02.2018 01:00:00 -5,0 -5,8 3 2 6 4 WNW 20 0,0
21.02.2018 00:00:00 -4,9 -5,7 4 2 8 4 NNW 15 0,0
20.02.2018 23:00:00 -4,8 -5,6 4 2 8 4 NW 16 0,0
20.02.2018 22:00:00 -5,1 -5,8 3 1 4 2 NW 8 0,0
20.02.2018 21:00:00 -4,7 -5,5 4 2 11 6 N 7 0,0
20.02.2018 20:00:00 -4,4 -5,1 6 3 13 7 N 6 0,0
20.02.2018 19:00:00 -4,3 -5,0 8 4 14 7 NNW 2,6 0,2
20.02.2018 18:00:00 -4,2 -4,9 9 5 16 8 NNW 3,9 0,1
20.02.2018 17:00:00 -3,7 -4,4 9 5 14 8 NNW 2,5 0,0
20.02.2018 16:00:00 -3,2 -4,0 5 3 15 8 N 6 0,1
20.02.2018 15:00:00 -3,1 -4,1 8 5 16 9 N 6 0,1
20.02.2018 14:00:00 -3,2 -4,2 11 6 18 10 N 2,0 0,1
20.02.2018 13:00:00 -3,0 -3,8 10 5 18 10 N 3,0 0,1
20.02.2018 12:00:00 -3,1 -4,1 11 6 18 10 N 6 0,0
20.02.2018 11:00:00 -2,8 -3,5 8 4 17 9 N 6 0,0
20.02.2018 10:00:00 -3,1 -3,8 8 4 16 9 N 11 0,0
20.02.2018 09:00:00 -3,6 -4,3 7 4 18 10 N 8 0,1
20.02.2018 08:00:00 -3,3 -3,8 8 5 18 10 N 7 0,0
20.02.2018 07:00:00 -2,8 -3,3 9 5 15 8 N 6 0,0
20.02.2018 06:00:00 -2,3 -2,7 5 3 11 6 N 4,8 0,4
20.02.2018 05:00:00 -2,1 -2,5 6 3 13 7 N 2,7 0,2
20.02.2018 04:00:00 -1,9 -2,3 7 4 16 8 NNE 6 0,2
20.02.2018 03:00:00 -1,7 -2,1 8 4 12 6 NNE 6 0,1
20.02.2018 02:00:00 -1,7 -2,1 6 4 13 7 NNE 7 0,1
20.02.2018 01:00:00 -1,6 -2,0 9 5 19 10 NNE 6 0,0
20.02.2018 00:00:00 -1,3 -1,6 10 5 23 12 NE 11 0,1
19.02.2018 23:00:00 -1,0 -1,1 13 7 24 13 NE 3,5 0,6
19.02.2018 22:00:00 -0,7 -0,7 11 6 24 13 ENE 1,8 0,2
19.02.2018 21:00:00 -0,4 -0,5 14 7 27 15 ENE 2,0 0,8
19.02.2018 20:00:00 -0,1 -0,2 17 9 30 16 ENE 1,6 0,5
19.02.2018 19:00:00 0,1 -0,2 14 7 23 12 NE 2,7 0,3
19.02.2018 18:00:00 0,3 0,0 5 3 9 5 NNE 4,1 0,1
19.02.2018 17:00:00 0,5 0,2 5 3 8 4 N 3,5 0,0
19.02.2018 16:00:00 0,6 0,2 0 0 5 3 N 6 0,1
19.02.2018 15:00:00 0,5 0,1 3 2 6 3 ENE 5 0,1
19.02.2018 14:00:00 0,5 -0,1 4 2 7 4 ENE 6 0,0
19.02.2018 13:00:00 0,3 -0,3 4 2 7 4 ENE 6 0,0
19.02.2018 12:00:00 0,1 -0,3 4 2 7 4 NE 4,0 0,2
19.02.2018 11:00:00 0,2 -0,2 0 0 3 2 N 4,5 0,1
19.02.2018 10:00:00 -0,1 -0,5 3 1 5 3 ENE 4,0 0,0
19.02.2018 09:00:00 -0,2 -0,5 0 0 2 1 N 6 0,0
19.02.2018 08:00:00 -0,5 -0,8 0 0 2 1 N 4,3 0,0
19.02.2018 07:00:00 -0,6 -0,9 0 0 2 1 N 3,4 0,0
19.02.2018 06:00:00 -0,5 -0,9 0 0 7 4 N 7 0,0
19.02.2018 05:00:00 -0,4 -0,8 4 2 7 4 S 8 0,0
19.02.2018 04:00:00 -0,5 -0,9 3 2 8 4 S 7 0,0
19.02.2018 03:00:00 -0,4 -0,8 4 2 10 6 S 5 0,0
19.02.2018 02:00:00 -0,1 -0,7 6 3 11 6 S 7 0,0
19.02.2018 01:00:00 -0,1 -0,5 5 3 10 5 S 5 0,4
19.02.2018 00:00:00 -0,2 -0,8 4 2 12 7 S 6 0,0

tt = Température de l'air
td = dewpoint
ff = Vitesse du vent
fx = gusts
dd = Direction du vent
vv = visibility
rr = Quantités de précipitations

stations d'obs. à proximité